San Jon, NM (88411)

8:20 PM MDT on August 31, 2016 (GMT -0600)
Clovis Municipal | | Change Station

Elev 4216 ft 34.43 °N, 103.08 °W | Updated 5 minutes ago

Clear
Clear
66 °F
Feels Like 66 °F
N
0
Wind Variable Wind from North

Today
High -- | Low -- °F
--% Chance of Precip.
Yesterday
High -- | Low -- °F
Precip. -- in
Pressure 30.22 in
Visibility 10.0 miles
Clouds Clear
Dew Point 63 °F
Humidity 88%
Rainfall 0.74 in
Snow Depth Not available.
6:25 AM 7:20 PM
Waning Crescent, 0% visible
METAR KCVN 010215Z AUTO 00000KT 10SM CLR 19/17 A3022 RMK AO1
Pressure 30.22 in
Visibility 10.0 miles
Clouds Clear
Dew Point 63 °F
Humidity 88%
Rainfall 0.74 in
Snow Depth Not available.
6:25 AM 7:20 PM
Waning Crescent, 0% visible
METAR KCVN 010215Z AUTO 00000KT 10SM CLR 19/17 A3022 RMK AO1

10-Day Weather Forecast

Almanac

Astronomy

Aug. 31, 2016 Rise Set
Actual Time
Civil Twilight
Nautical Twilight
Astronomical Twilight
Moon
Length of Visible Light
Length of Day
Tomorrow will be .
, % of the Moon is Illuminated

Today's Extremes

State Highs State Lows

Community

WunderPhotos

Upload Photos

1,936,273 photos uploaded!

WunderBlog® & News

Nearby

Air Quality

  Air Quality AQ Index Pollutant
Not available.

Snow Depth

Station Depth Elevation

Earthquake Activity

City Distance Mag. Time & Date
Minimum magnitude displayed is 2.5.

Coastal Water Temperatures

Place Temperature

Stations

Nearby Weather Stations

Station Location Temp. Windchill Dew Point Humidity Wind Precip. Elev Updated Type
                   

Watches & Warnings

There are currently no watches in effect.